Wetter & Webcam

Wetterdaten Diepholz (ETND)

METAR
METAR text: ETND 111220Z 11012KT 9999 FEW056 32/18 Q1017 BLU+BLU+ Conditions at: ETND (DIEPHOLZ (GER-AF, DE) observed 1220 UTC 11 August 2020 Temperature: 32.0°C (90°F) Dewpoint: 18.0°C (64°F) [RH = 43%] Pressure (altimeter): 30.03 inches Hg (1017.0 mb) Winds: from the ESE (110 degrees) at 14 MPH (12 knots; 6.2 m/s) Visibility: 6 or more miles (10+ km) Ceiling: at least 12,000 feet AGL Clouds: few clouds at 5600 feet AGL Weather: no significant weather observed at this time Forecast for: ETND (DIEPHOLZ (GER-AF, DE) Text: ETND 111000Z 1111/1120 12010KT 9999 NSW FEW060 Forecast period: 1100 to 2000 UTC 11 August 2020 Forecast type: FROM: standard forecast or significant change Winds: from the ESE (120 degrees) at 12 MPH (10 knots; 5.1 m/s) Visibility: 6 or more miles (10+ km) Ceiling: at least 12,000 feet AGL Clouds: few clouds at 6000 feet AGL Weather: NSW  (no significant weather) Text: PROB30 1113/1118 VRB15G30KT 4000 TSRA SCT040 BKN060CB BY ETGL Forecast period: 1300 to 1800 UTC 11 August 2020 Forecast type: PROBABLE: 30 percent likelihood of the following during this time Winds: variable direction winds at 17 MPH (15 knots; 7.7 m/s) =
gusting to 34 MPH (30 knots; 15.4 m/s) Visibility: 2.49 miles (4.01 km) Ceiling: 6000 feet AGL Clouds: scattered clouds at 4000 feet AGL =
broken clouds at 6000 feet AGL Weather: TSRA  (rain associated with thunderstorm(s))
Sunrise (SR) / Sunset (SS)
04:03 / 19:00 UTC

Wetterdaten Bremen (EDDW)

METAR
METAR text: EDDW 111250Z 10012KT 070V140 CAVOK 33/13 Q1017 NOSIG Conditions at: EDDW (BREMEN , DE) observed 1250 UTC 11 August 2020 Temperature: 33.0°C (91°F) Dewpoint: 13.0°C (55°F) [RH = 30%] Pressure (altimeter): 30.03 inches Hg (1017.0 mb) Winds: from the E (100 degrees) at 14 MPH (12 knots; 6.2 m/s) Visibility: 6 or more miles (10+ km) Ceiling: ceiling and visibility are OK Clouds: unknown Weather: no significant weather observed at this time Forecast for: EDDW (BREMEN , DE) Text: EDDW 111100Z 1112/1212 09009KT CAVOK Forecast period: 1200 UTC 11 August 2020 to 1200 UTC 12 August 2020 Forecast type: FROM: standard forecast or significant change Winds: from the E (90 degrees) at 10 MPH (9 knots; 4.6 m/s) Visibility: 6 or more miles (10+ km) Ceiling: unknown Clouds: missing Weather: NSW  (no significant weather)

Copyright © 2020 Flugplatz Diepholz-Dümmerland

© 2020 Flugplatz Diepholz-Dümmerland